createdAt,value
2023-02-06T00:00:07.504Z,0.58
2023-02-06T00:01:07.666Z,0.63
2023-02-06T00:02:07.857Z,0.58
2023-02-06T00:03:07.983Z,0.61
2023-02-06T00:04:08.215Z,0.61
2023-02-06T00:05:08.322Z,0.65
2023-02-06T00:06:08.514Z,0.62
2023-02-06T00:07:08.701Z,0.65
2023-02-06T00:08:08.877Z,0.63
2023-02-06T00:09:09.071Z,0.65
2023-02-06T00:10:09.229Z,0.63
2023-02-06T00:11:09.405Z,0.65
2023-02-06T00:12:09.575Z,0.63
2023-02-06T00:13:09.729Z,0.63
2023-02-06T00:14:09.936Z,0.63
2023-02-06T00:15:10.099Z,0.62
2023-02-06T00:16:10.333Z,0.59
2023-02-06T00:17:10.453Z,0.56
2023-02-06T00:18:10.651Z,0.56
2023-02-06T00:19:10.834Z,0.53
2023-02-06T00:20:10.973Z,0.55
2023-02-06T00:21:11.142Z,0.55
2023-02-06T00:22:11.302Z,0.55
2023-02-06T00:23:11.483Z,0.53
2023-02-06T00:24:11.713Z,0.53
2023-02-06T00:25:11.835Z,0.51
2023-02-06T00:26:12.009Z,0.53
2023-02-06T00:27:12.157Z,0.51
2023-02-06T00:28:12.354Z,0.53
2023-02-06T00:29:12.494Z,0.51
2023-02-06T00:30:12.645Z,0.50
2023-02-06T00:31:12.891Z,0.53
2023-02-06T00:32:12.998Z,0.44
2023-02-06T00:33:13.189Z,0.50
2023-02-06T00:34:13.422Z,0.45
2023-02-06T00:35:13.542Z,0.47
2023-02-06T00:36:13.743Z,0.50
2023-02-06T00:37:13.894Z,0.50
2023-02-06T00:38:14.055Z,0.50
2023-02-06T00:39:14.250Z,0.50
2023-02-06T00:40:14.406Z,0.47
2023-02-06T00:41:14.566Z,0.44
2023-02-06T00:42:14.720Z,0.45
2023-02-06T00:43:14.877Z,0.41
2023-02-06T00:44:15.044Z,0.38
2023-02-06T00:45:15.199Z,0.40
2023-02-06T00:46:15.421Z,0.37
2023-02-06T00:47:15.533Z,0.33
2023-02-06T00:48:15.698Z,0.38
2023-02-06T00:49:15.865Z,0.33
2023-02-06T00:50:16.021Z,0.38
2023-02-06T00:51:16.182Z,0.37
2023-02-06T00:52:16.371Z,0.37
2023-02-06T00:53:16.559Z,0.33
2023-02-06T00:54:16.767Z,0.33
2023-02-06T00:55:16.927Z,0.41
2023-02-06T00:56:17.113Z,0.30
2023-02-06T00:57:17.296Z,0.37
2023-02-06T00:58:17.496Z,0.38
2023-02-06T00:59:17.720Z,0.40
2023-02-06T01:00:17.866Z,0.33
2023-02-06T01:01:18.117Z,0.36
2023-02-06T01:02:18.202Z,0.33
2023-02-06T01:03:18.388Z,0.36
2023-02-06T01:04:18.607Z,0.37
2023-02-06T01:05:18.751Z,0.30
2023-02-06T01:06:18.920Z,0.43
2023-02-06T01:07:19.075Z,0.32
2023-02-06T01:08:19.231Z,0.36
2023-02-06T01:09:19.419Z,0.38
2023-02-06T01:10:19.593Z,0.40
2023-02-06T01:11:19.752Z,0.38
2023-02-06T01:12:19.910Z,0.36
2023-02-06T01:13:20.089Z,0.37
2023-02-06T01:14:20.259Z,0.36
2023-02-06T01:15:20.422Z,0.37
2023-02-06T01:16:20.689Z,0.38
2023-02-06T01:17:20.780Z,0.40
2023-02-06T01:18:20.944Z,0.38
2023-02-06T01:19:21.129Z,0.33
2023-02-06T01:20:21.278Z,0.38
2023-02-06T01:21:21.463Z,0.36
2023-02-06T01:22:21.650Z,0.40
2023-02-06T01:23:21.841Z,0.36
2023-02-06T01:24:22.012Z,0.37
2023-02-06T01:25:22.178Z,0.33
2023-02-06T01:26:22.326Z,0.32
2023-02-06T01:27:22.508Z,0.32
2023-02-06T01:28:22.670Z,0.38
2023-02-06T01:29:22.872Z,0.30
2023-02-06T01:30:23.066Z,0.36
2023-02-06T01:31:23.244Z,0.32
2023-02-06T01:32:23.368Z,0.29
2023-02-06T01:33:23.563Z,0.33
2023-02-06T01:34:23.720Z,0.38
2023-02-06T01:35:23.888Z,0.37
2023-02-06T01:36:24.090Z,0.36
2023-02-06T01:37:24.269Z,0.32
2023-02-06T01:38:24.500Z,0.37
2023-02-06T01:39:24.644Z,0.36
2023-02-06T01:40:24.814Z,0.37
2023-02-06T01:41:25.002Z,0.32
2023-02-06T01:42:25.162Z,0.33
2023-02-06T01:43:25.349Z,0.33
2023-02-06T01:44:25.528Z,0.36
2023-02-06T01:45:25.728Z,0.33
2023-02-06T01:46:25.966Z,0.30
2023-02-06T01:47:26.072Z,0.30
2023-02-06T01:48:26.221Z,0.30
2023-02-06T01:49:26.406Z,0.32
2023-02-06T01:50:26.597Z,0.30
2023-02-06T01:51:26.722Z,0.33
2023-02-06T01:52:26.942Z,0.36
2023-02-06T01:53:27.106Z,0.32
2023-02-06T01:54:27.259Z,0.33
2023-02-06T01:55:27.445Z,0.32
2023-02-06T01:56:27.605Z,0.27
2023-02-06T01:57:27.809Z,0.32
2023-02-06T01:58:27.958Z,0.27
2023-02-06T01:59:28.143Z,0.29
2023-02-06T02:00:28.335Z,0.25
2023-02-06T02:01:28.493Z,0.25
2023-02-06T02:02:28.657Z,0.26
2023-02-06T02:03:28.835Z,0.26
2023-02-06T02:04:29.022Z,0.20
2023-02-06T02:05:29.174Z,0.22
2023-02-06T02:06:29.366Z,0.19
2023-02-06T02:07:29.524Z,0.23
2023-02-06T02:08:29.672Z,0.15
2023-02-06T02:09:29.836Z,0.20
2023-02-06T02:10:29.999Z,0.22
2023-02-06T02:11:30.220Z,0.25
2023-02-06T02:12:30.359Z,0.22
2023-02-06T02:13:30.542Z,0.25
2023-02-06T02:14:30.737Z,0.22
2023-02-06T02:15:30.921Z,0.23
2023-02-06T02:16:31.148Z,0.23
2023-02-06T02:17:31.253Z,0.20
2023-02-06T02:18:31.452Z,0.23
2023-02-06T02:19:31.642Z,0.26
2023-02-06T02:20:31.822Z,0.23
2023-02-06T02:21:31.993Z,0.26
2023-02-06T02:22:32.165Z,0.27
2023-02-06T02:23:32.320Z,0.29
2023-02-06T02:24:32.508Z,0.29
2023-02-06T02:25:32.696Z,0.27
2023-02-06T02:26:32.873Z,0.27
2023-02-06T02:27:33.022Z,0.27
2023-02-06T02:28:33.184Z,0.29
2023-02-06T02:29:33.374Z,0.27
2023-02-06T02:30:33.623Z,0.26
2023-02-06T02:31:33.776Z,0.27
2023-02-06T02:32:33.902Z,0.30
2023-02-06T02:33:34.084Z,0.25
2023-02-06T02:34:34.274Z,0.23
2023-02-06T02:35:34.876Z,0.27
2023-02-06T02:36:34.666Z,0.30
2023-02-06T02:37:34.825Z,0.29
2023-02-06T02:38:34.977Z,0.26
2023-02-06T02:39:35.165Z,0.27
2023-02-06T02:40:35.329Z,0.22
2023-02-06T02:41:35.519Z,0.26
2023-02-06T02:42:35.672Z,0.27
2023-02-06T02:43:35.818Z,0.18
2023-02-06T02:44:35.983Z,0.18
2023-02-06T02:45:36.430Z,0.14
2023-02-06T02:46:36.342Z,0.19
2023-02-06T02:47:36.513Z,0.18
2023-02-06T02:48:36.658Z,0.15
2023-02-06T02:49:36.830Z,0.19
2023-02-06T02:50:36.994Z,0.19
2023-02-06T02:51:37.197Z,0.22
2023-02-06T02:52:37.397Z,0.11
2023-02-06T02:53:37.557Z,0.20
2023-02-06T02:54:37.707Z,0.20
2023-02-06T02:55:38.206Z,0.20
2023-02-06T02:56:38.090Z,0.18
2023-02-06T02:57:38.293Z,0.22
2023-02-06T02:58:38.440Z,0.22
2023-02-06T02:59:38.608Z,0.19
2023-02-06T03:00:38.846Z,0.22
2023-02-06T03:01:38.965Z,0.23
2023-02-06T03:02:39.206Z,0.20
2023-02-06T03:03:39.332Z,0.22
2023-02-06T03:04:39.513Z,0.20
2023-02-06T03:05:39.712Z,0.25
2023-02-06T03:06:39.870Z,0.22
2023-02-06T03:07:40.092Z,0.27
2023-02-06T03:08:40.244Z,0.25
2023-02-06T03:09:40.410Z,0.23
2023-02-06T03:10:40.559Z,0.27
2023-02-06T03:11:40.723Z,0.27
2023-02-06T03:12:40.934Z,0.30
2023-02-06T03:13:41.083Z,0.30
2023-02-06T03:14:41.277Z,0.30
2023-02-06T03:15:41.464Z,0.33
2023-02-06T03:16:41.718Z,0.36
2023-02-06T03:17:41.873Z,0.32
2023-02-06T03:18:42.003Z,0.37
2023-02-06T03:19:42.157Z,0.38
2023-02-06T03:20:42.330Z,0.36
2023-02-06T03:21:42.528Z,0.37
2023-02-06T03:22:42.727Z,0.38
2023-02-06T03:23:42.890Z,0.45
2023-02-06T03:24:43.040Z,0.41
2023-02-06T03:25:43.203Z,0.47
2023-02-06T03:26:43.380Z,0.47
2023-02-06T03:27:43.611Z,0.48
2023-02-06T03:28:43.711Z,0.51
2023-02-06T03:29:43.878Z,0.53
2023-02-06T03:30:44.096Z,0.55
2023-02-06T03:31:44.232Z,0.56
2023-02-06T03:32:44.407Z,0.58
2023-02-06T03:33:44.561Z,0.58
2023-02-06T03:34:44.753Z,0.62
2023-02-06T03:35:44.930Z,0.61
2023-02-06T03:36:45.090Z,0.63
2023-02-06T03:37:45.291Z,0.68
2023-02-06T03:38:45.430Z,0.63
2023-02-06T03:39:45.627Z,0.65
2023-02-06T03:40:45.808Z,0.73
2023-02-06T03:41:45.993Z,0.69
2023-02-06T03:42:46.178Z,0.74
2023-02-06T03:43:46.336Z,0.73
2023-02-06T03:44:46.518Z,0.74
2023-02-06T03:45:46.719Z,0.77
2023-02-06T03:46:46.838Z,0.74
2023-02-06T03:47:47.021Z,0.81
2023-02-06T03:48:47.175Z,0.79
2023-02-06T03:49:47.335Z,0.86
2023-02-06T03:50:47.483Z,0.79
2023-02-06T03:51:47.653Z,0.90
2023-02-06T03:52:47.864Z,0.92
2023-02-06T03:53:48.016Z,0.92
2023-02-06T03:54:48.193Z,0.98
2023-02-06T03:55:48.392Z,0.95
2023-02-06T03:56:48.531Z,1.04
2023-02-06T03:57:48.751Z,0.95
2023-02-06T03:58:48.910Z,1.02
2023-02-06T03:59:49.097Z,1.08
2023-02-06T04:00:49.265Z,1.04
2023-02-06T04:01:49.455Z,1.04
2023-02-06T04:02:49.594Z,1.10
2023-02-06T04:03:49.779Z,1.08
2023-02-06T04:04:49.927Z,1.07
2023-02-06T04:05:50.076Z,1.13
2023-02-06T04:06:50.234Z,1.15
2023-02-06T04:07:50.431Z,1.17
2023-02-06T04:08:50.674Z,1.15
2023-02-06T04:09:50.789Z,1.17
2023-02-06T04:10:50.998Z,1.16
2023-02-06T04:11:51.136Z,1.19
2023-02-06T04:12:51.318Z,1.20
2023-02-06T04:13:51.497Z,1.20
2023-02-06T04:14:51.649Z,1.25
2023-02-06T04:15:51.821Z,1.26
2023-02-06T04:16:51.958Z,1.25
2023-02-06T04:18:00.083Z,1.26
2023-02-06T04:18:53.308Z,1.31
2023-02-06T04:19:52.498Z,1.28
2023-02-06T04:20:52.678Z,1.25
2023-02-06T04:21:52.826Z,1.33
2023-02-06T04:22:53.040Z,1.33
2023-02-06T04:23:53.182Z,1.35
2023-02-06T04:24:53.330Z,1.33
2023-02-06T04:25:53.499Z,1.35
2023-02-06T04:26:53.690Z,1.35
2023-02-06T04:27:53.889Z,1.34
2023-02-06T04:28:54.040Z,1.39
2023-02-06T04:29:54.257Z,1.41
2023-02-06T04:30:54.522Z,1.44
2023-02-06T04:31:54.590Z,1.46
2023-02-06T04:32:54.740Z,1.44
2023-02-06T04:33:54.937Z,1.46
2023-02-06T04:34:55.155Z,1.46
2023-02-06T04:35:55.302Z,1.45
2023-02-06T04:36:55.461Z,1.50
2023-02-06T04:37:55.618Z,1.52
2023-02-06T04:38:55.799Z,1.53
2023-02-06T04:39:55.980Z,1.52
2023-02-06T04:40:56.131Z,1.52
2023-02-06T04:41:56.291Z,1.57
2023-02-06T04:42:56.477Z,1.53
2023-02-06T04:43:56.673Z,1.57
2023-02-06T04:44:56.836Z,1.57
2023-02-06T04:45:57.009Z,1.52
2023-02-06T04:46:57.175Z,1.56
2023-02-06T04:47:59.359Z,1.56
2023-02-06T04:48:57.477Z,1.59
2023-02-06T04:49:57.682Z,1.60
2023-02-06T04:50:57.835Z,1.57
2023-02-06T04:51:58.013Z,1.59
2023-02-06T04:52:58.182Z,1.62
2023-02-06T04:53:58.359Z,1.62
2023-02-06T04:54:58.517Z,1.68
2023-02-06T04:55:58.655Z,1.63
2023-02-06T04:56:58.838Z,1.62
2023-02-06T04:57:59.024Z,1.62
2023-02-06T04:58:59.210Z,1.63
2023-02-06T04:59:59.375Z,1.68
2023-02-06T05:00:59.528Z,1.64
2023-02-06T05:01:59.693Z,1.70
2023-02-06T05:02:59.862Z,1.64
2023-02-06T05:04:00.081Z,1.68
2023-02-06T05:05:00.211Z,1.64
2023-02-06T05:06:00.410Z,1.70
2023-02-06T05:07:00.564Z,1.70
2023-02-06T05:08:00.726Z,1.71
2023-02-06T05:09:00.924Z,1.71
2023-02-06T05:10:01.104Z,1.75
2023-02-06T05:11:01.274Z,1.71
2023-02-06T05:12:01.440Z,1.72
2023-02-06T05:13:01.630Z,1.77
2023-02-06T05:14:01.842Z,1.75
2023-02-06T05:15:02.012Z,1.82
2023-02-06T05:16:02.185Z,1.80
2023-02-06T05:17:02.370Z,1.82
2023-02-06T05:18:02.532Z,1.81
2023-02-06T05:19:02.751Z,1.78
2023-02-06T05:20:02.880Z,1.82
2023-02-06T05:21:03.061Z,1.82
2023-02-06T05:22:03.251Z,1.80
2023-02-06T05:23:03.420Z,1.86
2023-02-06T05:24:03.606Z,1.89
2023-02-06T05:25:03.731Z,1.88
2023-02-06T05:26:03.922Z,1.86
2023-02-06T05:27:04.092Z,1.84
2023-02-06T05:28:04.306Z,1.86
2023-02-06T05:29:04.484Z,1.84
2023-02-06T05:30:04.653Z,1.90
2023-02-06T05:31:04.941Z,1.93
2023-02-06T05:32:05.005Z,1.90
2023-02-06T05:33:05.187Z,1.93
2023-02-06T05:34:05.354Z,1.90
2023-02-06T05:35:05.509Z,1.92
2023-02-06T05:36:05.671Z,1.92
2023-02-06T05:37:05.839Z,1.95
2023-02-06T05:38:06.007Z,1.92
2023-02-06T05:39:06.204Z,1.96
2023-02-06T05:40:06.352Z,1.98
2023-02-06T05:41:06.534Z,1.95
2023-02-06T05:42:06.697Z,1.98
2023-02-06T05:43:06.856Z,2.00
2023-02-06T05:44:07.055Z,1.98
2023-02-06T05:45:07.201Z,2.02
2023-02-06T05:46:07.400Z,2.00
2023-02-06T05:47:07.580Z,2.02
2023-02-06T05:48:07.695Z,2.02
2023-02-06T05:49:07.898Z,2.07
2023-02-06T05:50:08.046Z,2.04
2023-02-06T05:51:08.219Z,2.08
2023-02-06T05:52:08.417Z,2.02
2023-02-06T05:53:08.567Z,2.07
2023-02-06T05:54:08.787Z,2.07
2023-02-06T05:55:08.940Z,2.07
2023-02-06T05:56:09.122Z,2.07
2023-02-06T05:57:09.309Z,2.06
2023-02-06T05:58:09.507Z,2.06
2023-02-06T05:59:09.697Z,2.08
2023-02-06T06:00:09.857Z,2.08
2023-02-06T06:01:10.050Z,2.11
2023-02-06T06:02:10.198Z,2.10
2023-02-06T06:03:10.343Z,2.07
2023-02-06T06:04:10.602Z,2.13
2023-02-06T06:05:10.717Z,2.11
2023-02-06T06:06:10.867Z,2.11
2023-02-06T06:07:11.023Z,2.14
2023-02-06T06:08:11.194Z,2.16
2023-02-06T06:09:11.382Z,2.17
2023-02-06T06:10:11.517Z,2.18
2023-02-06T06:11:11.710Z,2.21
2023-02-06T06:12:11.890Z,2.16
2023-02-06T06:13:12.096Z,2.17
2023-02-06T06:14:12.245Z,2.21
2023-02-06T06:15:12.398Z,2.20
2023-02-06T06:16:12.622Z,2.24
2023-02-06T06:17:12.742Z,2.25
2023-02-06T06:18:12.930Z,2.25
2023-02-06T06:19:13.114Z,2.24
2023-02-06T06:20:13.276Z,2.25
2023-02-06T06:21:13.460Z,2.20
2023-02-06T06:22:13.642Z,2.26
2023-02-06T06:23:13.824Z,2.25
2023-02-06T06:24:14.010Z,2.25
2023-02-06T06:25:14.159Z,2.28
2023-02-06T06:26:14.328Z,2.31
2023-02-06T06:27:14.510Z,2.28
2023-02-06T06:28:14.716Z,2.31
2023-02-06T06:29:14.840Z,2.29
2023-02-06T06:30:15.002Z,2.32
2023-02-06T06:31:15.345Z,2.28
2023-02-06T06:32:15.325Z,2.35
2023-02-06T06:33:15.488Z,2.34
2023-02-06T06:34:15.709Z,2.35
2023-02-06T06:35:15.849Z,2.32
2023-02-06T06:36:16.028Z,2.34
2023-02-06T06:37:16.211Z,2.35
2023-02-06T06:38:16.374Z,2.36
2023-02-06T06:39:16.531Z,2.38
2023-02-06T06:40:16.679Z,2.36
2023-02-06T06:41:16.843Z,2.39
2023-02-06T06:42:17.001Z,2.44
2023-02-06T06:43:17.181Z,2.44
2023-02-06T06:44:17.329Z,2.44
2023-02-06T06:45:17.490Z,2.44
2023-02-06T06:46:17.670Z,2.47
2023-02-06T06:47:17.890Z,2.43
2023-02-06T06:48:18.059Z,2.47
2023-02-06T06:49:18.202Z,2.46
2023-02-06T06:50:18.371Z,2.47
2023-02-06T06:51:18.540Z,2.50
2023-02-06T06:52:24.979Z,2.47
2023-02-06T06:53:19.900Z,2.49
2023-02-06T06:54:19.063Z,2.44
2023-02-06T06:55:19.235Z,2.56
2023-02-06T06:56:19.409Z,2.50
2023-02-06T06:57:19.601Z,2.49
2023-02-06T06:58:19.767Z,2.51
2023-02-06T06:59:19.948Z,2.56
2023-02-06T07:00:20.109Z,2.51
2023-02-06T07:01:20.340Z,2.53
2023-02-06T07:02:20.444Z,2.56
2023-02-06T07:03:20.661Z,2.53
2023-02-06T07:04:20.824Z,2.59
2023-02-06T07:05:21.001Z,2.54
2023-02-06T07:06:21.176Z,2.61
2023-02-06T07:07:21.379Z,2.59
2023-02-06T07:08:21.535Z,2.59
2023-02-06T07:09:21.697Z,2.67
2023-02-06T07:10:21.876Z,2.65
2023-02-06T07:11:22.056Z,2.62
2023-02-06T07:12:22.228Z,2.68
2023-02-06T07:13:22.397Z,2.68
2023-02-06T07:14:22.566Z,2.68
2023-02-06T07:15:22.750Z,2.72
2023-02-06T07:16:22.982Z,2.68
2023-02-06T07:17:23.112Z,2.71
2023-02-06T07:18:23.273Z,2.71
2023-02-06T07:19:23.447Z,2.72
2023-02-06T07:20:23.611Z,2.72
2023-02-06T07:21:23.818Z,2.75
2023-02-06T07:22:23.955Z,2.75
2023-02-06T07:23:24.109Z,2.79
2023-02-06T07:24:24.281Z,2.77
2023-02-06T07:25:24.450Z,2.72
2023-02-06T07:26:24.633Z,2.79
2023-02-06T07:27:24.817Z,2.77
2023-02-06T07:28:24.982Z,2.79
2023-02-06T07:29:25.154Z,2.86
2023-02-06T07:30:25.364Z,2.84
2023-02-06T07:31:25.595Z,2.80
2023-02-06T07:32:25.669Z,2.84
2023-02-06T07:33:25.840Z,2.87
2023-02-06T07:34:26.016Z,2.84
2023-02-06T07:35:26.188Z,2.86
2023-02-06T07:36:26.364Z,2.87
2023-02-06T07:37:26.530Z,2.90
2023-02-06T07:38:26.698Z,2.90
2023-02-06T07:39:26.889Z,2.94
2023-02-06T07:40:33.777Z,3.02
2023-02-06T07:41:28.247Z,3.06
2023-02-06T07:42:27.424Z,3.11
2023-02-06T07:43:27.591Z,3.14
2023-02-06T07:44:27.747Z,3.20
2023-02-06T07:45:27.912Z,3.19
2023-02-06T07:46:28.079Z,3.23
2023-02-06T07:47:28.304Z,3.26
2023-02-06T07:48:28.437Z,3.24
2023-02-06T07:49:28.626Z,3.23
2023-02-06T07:50:28.782Z,3.26
2023-02-06T07:51:28.961Z,3.29
2023-02-06T07:52:29.162Z,3.29
2023-02-06T07:53:29.313Z,3.32
2023-02-06T07:54:29.508Z,3.32
2023-02-06T07:55:29.672Z,3.35
2023-02-06T07:56:29.848Z,3.32
2023-02-06T07:57:30.066Z,3.38
2023-02-06T07:58:30.202Z,3.35
2023-02-06T07:59:30.386Z,3.37
2023-02-06T08:00:30.553Z,3.40
2023-02-06T08:01:30.824Z,3.40
2023-02-06T08:02:30.928Z,3.40
2023-02-06T08:03:31.093Z,3.41
2023-02-06T08:04:31.347Z,3.44
2023-02-06T08:05:31.454Z,3.41
2023-02-06T08:06:31.614Z,3.42
2023-02-06T08:07:31.824Z,3.47
2023-02-06T08:08:31.962Z,3.47
2023-02-06T08:09:32.150Z,3.51
2023-02-06T08:10:32.369Z,3.60
2023-02-06T08:11:32.505Z,3.81
2023-02-06T08:12:32.705Z,3.98
2023-02-06T08:13:32.847Z,4.21
2023-02-06T08:14:33.023Z,4.51
2023-02-06T08:15:33.431Z,4.81
2023-02-06T08:16:33.368Z,5.09
2023-02-06T08:17:33.575Z,5.34
2023-02-06T08:18:33.733Z,5.55
2023-02-06T08:19:33.904Z,5.85
2023-02-06T08:20:34.056Z,6.00
2023-02-06T08:21:34.245Z,6.21
2023-02-06T08:22:34.463Z,6.40
2023-02-06T08:23:34.645Z,6.57
2023-02-06T08:24:34.796Z,6.78
2023-02-06T08:25:35.419Z,6.96
2023-02-06T08:26:35.152Z,7.15
2023-02-06T08:27:35.346Z,7.30
2023-02-06T08:28:35.518Z,7.42
2023-02-06T08:29:35.697Z,7.65
2023-02-06T08:30:35.945Z,7.85
2023-02-06T08:31:36.236Z,7.95
2023-02-06T08:32:36.228Z,8.09
2023-02-06T08:33:36.407Z,8.22
2023-02-06T08:34:36.597Z,8.32
2023-02-06T08:35:36.948Z,8.46
2023-02-06T08:36:36.930Z,8.58
2023-02-06T08:37:37.096Z,8.72
2023-02-06T08:38:37.248Z,8.75
2023-02-06T08:39:37.471Z,8.94
2023-02-06T08:40:37.620Z,8.98
2023-02-06T08:41:37.789Z,9.05
2023-02-06T08:42:37.978Z,9.12
2023-02-06T08:43:38.133Z,9.23
2023-02-06T08:44:38.330Z,9.28
2023-02-06T08:45:38.497Z,9.30
2023-02-06T08:46:38.652Z,9.36
2023-02-06T08:47:38.814Z,9.41
2023-02-06T08:48:38.972Z,9.46
2023-02-06T08:49:39.169Z,9.57
2023-02-06T08:50:39.342Z,9.60
2023-02-06T08:51:39.540Z,9.66
2023-02-06T08:52:39.692Z,9.72
2023-02-06T08:53:39.877Z,9.77
2023-02-06T08:54:40.043Z,9.81
2023-02-06T08:55:40.599Z,9.93
2023-02-06T08:56:40.404Z,9.98
2023-02-06T08:57:40.564Z,10.01
2023-02-06T08:58:40.744Z,10.05
2023-02-06T08:59:40.874Z,10.08
2023-02-06T09:00:41.088Z,10.07
2023-02-06T09:01:41.324Z,10.07
2023-02-06T09:02:41.411Z,10.03
2023-02-06T09:03:41.607Z,9.98
2023-02-06T09:04:41.798Z,9.88
2023-02-06T09:05:42.004Z,9.85
2023-02-06T09:06:42.145Z,9.79
2023-02-06T09:07:42.306Z,9.75
2023-02-06T09:08:42.543Z,9.70
2023-02-06T09:09:42.681Z,9.60
2023-02-06T09:10:42.848Z,9.53
2023-02-06T09:11:43.025Z,9.49
2023-02-06T09:12:43.194Z,9.41
2023-02-06T09:13:43.416Z,9.35
2023-02-06T09:14:43.588Z,9.27
2023-02-06T09:15:43.738Z,9.20
2023-02-06T09:16:43.894Z,9.17
2023-02-06T09:17:44.091Z,9.09
2023-02-06T09:18:44.309Z,9.02
2023-02-06T09:19:44.461Z,9.01
2023-02-06T09:20:44.606Z,8.91
2023-02-06T09:21:44.785Z,8.88
2023-02-06T09:22:44.994Z,8.84
2023-02-06T09:23:45.139Z,8.76
2023-02-06T09:24:45.275Z,8.72
2023-02-06T09:25:45.492Z,8.69
2023-02-06T09:26:59.022Z,8.65
2023-02-06T09:27:46.870Z,8.65
2023-02-06T09:28:45.982Z,8.60
2023-02-06T09:29:46.157Z,8.66
2023-02-06T09:30:46.405Z,8.58
2023-02-06T09:31:46.614Z,8.54
2023-02-06T09:32:46.671Z,8.54
2023-02-06T09:33:46.855Z,8.49
2023-02-06T09:34:48.382Z,8.47
2023-02-06T09:35:47.185Z,8.43
2023-02-06T09:36:47.351Z,8.44
2023-02-06T09:37:47.520Z,8.36
2023-02-06T09:38:47.706Z,8.38
2023-02-06T09:39:47.863Z,8.35
2023-02-06T09:40:48.020Z,8.36
2023-02-06T09:41:48.225Z,8.29
2023-02-06T09:42:48.403Z,8.29
2023-02-06T09:43:48.554Z,8.26
2023-02-06T09:44:48.748Z,8.20
2023-02-06T09:45:48.922Z,8.25
2023-02-06T09:46:50.067Z,8.18
2023-02-06T09:47:49.263Z,8.17
2023-02-06T09:48:49.449Z,8.11
2023-02-06T09:49:49.643Z,8.13
2023-02-06T09:50:49.808Z,8.09
2023-02-06T09:51:50.013Z,8.06
2023-02-06T09:52:50.197Z,8.06
2023-02-06T09:53:50.360Z,8.07
2023-02-06T09:54:50.571Z,8.01
2023-02-06T09:55:50.737Z,7.95
2023-02-06T09:56:50.938Z,7.93
2023-02-06T09:57:51.091Z,7.89
2023-02-06T09:58:51.262Z,7.89
2023-02-06T09:59:51.440Z,7.89
2023-02-06T10:00:51.619Z,7.85
2023-02-06T10:01:51.852Z,7.83
2023-02-06T10:02:52.016Z,7.78
2023-02-06T10:03:52.207Z,7.81
2023-02-06T10:04:52.306Z,7.77
2023-02-06T10:05:52.463Z,7.74
2023-02-06T10:06:52.651Z,7.74
2023-02-06T10:07:52.837Z,7.73
2023-02-06T10:08:52.996Z,7.67
2023-02-06T10:09:53.182Z,7.70
2023-02-06T10:10:53.368Z,7.62
2023-02-06T10:11:53.511Z,7.65
2023-02-06T10:12:53.677Z,7.62
2023-02-06T10:13:53.845Z,7.62
2023-02-06T10:14:53.994Z,7.60
2023-02-06T10:15:54.257Z,7.58
2023-02-06T10:16:54.337Z,7.62
2023-02-06T10:17:54.485Z,7.56
2023-02-06T10:18:54.666Z,7.60
2023-02-06T10:19:54.839Z,7.60
2023-02-06T10:20:55.028Z,7.65
2023-02-06T10:21:55.147Z,7.63
2023-02-06T10:22:55.337Z,7.65
2023-02-06T10:23:55.537Z,7.60
2023-02-06T10:24:55.718Z,7.63
2023-02-06T10:25:55.897Z,7.62
2023-02-06T10:26:56.069Z,7.63
2023-02-06T10:27:56.264Z,7.65
2023-02-06T10:28:56.436Z,7.67
2023-02-06T10:29:56.595Z,7.62
2023-02-06T10:30:56.838Z,7.63
2023-02-06T10:31:56.944Z,7.65
2023-02-06T10:32:57.093Z,7.65
2023-02-06T10:33:57.265Z,7.63
2023-02-06T10:34:57.413Z,7.63
2023-02-06T10:35:57.597Z,7.65
2023-02-06T10:36:57.797Z,7.62
2023-02-06T10:37:57.954Z,7.65
2023-02-06T10:38:58.122Z,7.62
2023-02-06T10:39:58.282Z,7.63
2023-02-06T10:40:58.504Z,7.63
2023-02-06T10:41:58.636Z,7.67
2023-02-06T10:42:58.817Z,7.67
2023-02-06T10:43:59.017Z,7.67
2023-02-06T10:45:13.223Z,7.68
2023-02-06T10:46:00.364Z,7.65
2023-02-06T10:46:59.551Z,7.67
2023-02-06T10:47:59.804Z,7.70
2023-02-06T10:48:59.881Z,7.70
2023-02-06T10:50:00.056Z,7.70
2023-02-06T10:51:00.269Z,7.65
2023-02-06T10:52:00.431Z,7.68
2023-02-06T10:53:00.642Z,7.68
2023-02-06T10:54:00.827Z,7.65
2023-02-06T10:55:00.966Z,7.71
2023-02-06T10:56:01.189Z,7.71
2023-02-06T10:57:01.339Z,7.71
2023-02-06T10:58:01.564Z,7.70
2023-02-06T10:59:01.692Z,7.70
2023-02-06T11:00:01.884Z,7.73
2023-02-06T11:01:02.130Z,7.70
2023-02-06T11:02:02.249Z,7.71
2023-02-06T11:03:07.455Z,7.68
2023-02-06T11:04:03.598Z,7.74
2023-02-06T11:05:02.762Z,7.71
2023-02-06T11:06:02.939Z,7.71
2023-02-06T11:07:03.103Z,7.71
2023-02-06T11:08:03.277Z,7.75
2023-02-06T11:09:03.468Z,7.75
2023-02-06T11:10:03.643Z,7.73
2023-02-06T11:11:03.795Z,7.73
2023-02-06T11:12:03.970Z,7.73
2023-02-06T11:13:04.172Z,7.73
2023-02-06T11:14:04.339Z,7.73
2023-02-06T11:15:04.525Z,7.73
2023-02-06T11:16:04.727Z,7.73
2023-02-06T11:17:04.894Z,7.71
2023-02-06T11:18:05.041Z,7.71
2023-02-06T11:19:05.209Z,7.74
2023-02-06T11:20:05.387Z,7.70
2023-02-06T11:21:05.585Z,7.70
2023-02-06T11:22:05.764Z,7.70
2023-02-06T11:23:05.936Z,7.70
2023-02-06T11:24:06.110Z,7.63
2023-02-06T11:25:06.283Z,7.65
2023-02-06T11:26:06.477Z,7.67
2023-02-06T11:27:06.653Z,7.63
2023-02-06T11:28:06.918Z,7.67
2023-02-06T11:29:07.012Z,7.67
2023-02-06T11:30:07.164Z,7.63
2023-02-06T11:31:07.420Z,7.63
2023-02-06T11:32:07.524Z,7.70
2023-02-06T11:33:07.729Z,7.65
2023-02-06T11:34:07.895Z,7.71
2023-02-06T11:35:08.081Z,7.65
2023-02-06T11:36:08.261Z,7.70
2023-02-06T11:37:08.419Z,7.70
2023-02-06T11:38:08.599Z,7.70
2023-02-06T11:39:08.809Z,7.71
2023-02-06T11:40:08.984Z,7.71
2023-02-06T11:41:09.165Z,7.71
2023-02-06T11:42:09.330Z,7.71
2023-02-06T11:43:09.523Z,7.65
2023-02-06T11:44:09.714Z,7.68
2023-02-06T11:45:09.860Z,7.67
2023-02-06T11:46:10.107Z,7.68
2023-02-06T11:47:10.253Z,7.68
2023-02-06T11:48:10.401Z,7.70
2023-02-06T11:49:10.592Z,7.70
2023-02-06T11:50:10.788Z,7.65
2023-02-06T11:51:10.974Z,7.68
2023-02-06T11:52:11.127Z,7.67
2023-02-06T11:53:11.282Z,7.65
2023-02-06T11:54:11.467Z,7.67
2023-02-06T11:55:11.610Z,7.67
2023-02-06T11:56:11.790Z,7.67
2023-02-06T11:57:11.975Z,7.67
2023-02-06T11:58:12.181Z,7.63
2023-02-06T11:59:12.402Z,7.60
2023-02-06T12:00:12.616Z,7.65
2023-02-06T12:01:12.749Z,7.62
2023-02-06T12:02:12.986Z,7.65
2023-02-06T12:03:13.111Z,7.62
2023-02-06T12:04:13.287Z,7.67
2023-02-06T12:05:13.416Z,7.59
2023-02-06T12:06:13.578Z,7.67
2023-02-06T12:07:13.757Z,7.59
2023-02-06T12:08:13.915Z,7.63
2023-02-06T12:09:14.112Z,7.60
2023-02-06T12:10:14.258Z,7.58
2023-02-06T12:11:14.427Z,7.58
2023-02-06T12:12:14.592Z,7.55
2023-02-06T12:13:14.769Z,7.55
2023-02-06T12:14:14.991Z,7.55
2023-02-06T12:15:39.940Z,7.58
2023-02-06T12:16:16.383Z,7.56
2023-02-06T12:17:15.480Z,7.55
2023-02-06T12:18:15.640Z,7.50
2023-02-06T12:19:15.847Z,7.52
2023-02-06T12:20:15.982Z,7.52
2023-02-06T12:21:16.158Z,7.42
2023-02-06T12:22:16.373Z,7.49
2023-02-06T12:23:16.570Z,7.48
2023-02-06T12:24:16.684Z,7.49
2023-02-06T12:25:16.871Z,7.48
2023-02-06T12:26:17.037Z,7.42
2023-02-06T12:27:17.199Z,7.40
2023-02-06T12:28:17.428Z,7.44
2023-02-06T12:29:17.552Z,7.38
2023-02-06T12:30:17.672Z,7.40
2023-02-06T12:31:17.883Z,7.34
2023-02-06T12:32:18.002Z,7.32
2023-02-06T12:33:18.183Z,7.31
2023-02-06T12:34:18.353Z,7.34
2023-02-06T12:35:18.520Z,7.31
2023-02-06T12:36:18.678Z,7.27
2023-02-06T12:37:18.860Z,7.30
2023-02-06T12:38:19.018Z,7.27
2023-02-06T12:39:19.203Z,7.26
2023-02-06T12:40:19.341Z,7.24
2023-02-06T12:41:19.555Z,7.20
2023-02-06T12:42:19.702Z,7.24
2023-02-06T12:43:19.865Z,7.23
2023-02-06T12:44:20.069Z,7.17
2023-02-06T12:45:20.240Z,7.19
2023-02-06T12:46:20.566Z,7.17
2023-02-06T12:47:20.567Z,7.23
2023-02-06T12:48:20.750Z,7.23
2023-02-06T12:49:20.961Z,7.20
2023-02-06T12:50:21.120Z,7.20
2023-02-06T12:51:21.270Z,7.15
2023-02-06T12:52:21.433Z,7.20
2023-02-06T12:53:21.581Z,7.19
2023-02-06T12:54:21.782Z,7.17
2023-02-06T12:55:21.910Z,7.20
2023-02-06T12:56:22.096Z,7.10
2023-02-06T12:57:22.276Z,7.19
2023-02-06T12:58:22.431Z,7.16
2023-02-06T12:59:22.632Z,7.16
2023-02-06T13:00:22.771Z,7.19
2023-02-06T13:01:32.085Z,7.13
2023-02-06T13:02:24.210Z,7.19
2023-02-06T13:03:23.259Z,7.17
2023-02-06T13:04:23.451Z,7.12
2023-02-06T13:05:23.597Z,7.13
2023-02-06T13:06:23.783Z,7.16
2023-02-06T13:07:23.938Z,7.12
2023-02-06T13:08:26.290Z,7.13
2023-02-06T13:09:24.275Z,7.10
2023-02-06T13:10:24.429Z,7.04
2023-02-06T13:11:24.600Z,7.04
2023-02-06T13:12:24.782Z,7.08
2023-02-06T13:13:24.935Z,7.12
2023-02-06T13:14:25.088Z,7.10
2023-02-06T13:15:25.260Z,7.04
2023-02-06T13:16:25.417Z,7.15
2023-02-06T13:17:25.615Z,7.15
2023-02-06T13:18:25.762Z,7.10
2023-02-06T13:19:25.943Z,7.15
2023-02-06T13:20:26.103Z,7.15